sensor_id;sensor_type;location;lat;lon;timestamp;pressure;altitude;pressure_sealevel;temperature;humidity
47670;BME280;33408;52.062;11.722;2023-04-26T00:02:16;101136.09;;;3.55;100.00
47670;BME280;33408;52.062;11.722;2023-04-26T00:04:43;101138.56;;;3.49;100.00
47670;BME280;33408;52.062;11.722;2023-04-26T00:07:11;101136.78;;;3.45;100.00
47670;BME280;33408;52.062;11.722;2023-04-26T00:09:40;101140.19;;;3.44;100.00
47670;BME280;33408;52.062;11.722;2023-04-26T00:12:08;101144.50;;;3.46;100.00
47670;BME280;33408;52.062;11.722;2023-04-26T00:14:36;101133.34;;;3.44;100.00
47670;BME280;33408;52.062;11.722;2023-04-26T00:17:02;101141.03;;;3.44;100.00
47670;BME280;33408;52.062;11.722;2023-04-26T00:19:29;101130.72;;;3.40;100.00
47670;BME280;33408;52.062;11.722;2023-04-26T00:21:56;101130.72;;;3.40;100.00
47670;BME280;33408;52.062;11.722;2023-04-26T00:24:24;101132.34;;;3.36;100.00
47670;BME280;33408;52.062;11.722;2023-04-26T00:26:53;101137.47;;;3.36;100.00
47670;BME280;33408;52.062;11.722;2023-04-26T00:29:19;101141.47;;;3.20;100.00
47670;BME280;33408;52.062;11.722;2023-04-26T00:31:46;101133.94;;;3.28;100.00
47670;BME280;33408;52.062;11.722;2023-04-26T00:34:13;101140.75;;;3.27;100.00
47670;BME280;33408;52.062;11.722;2023-04-26T00:36:40;101140.00;;;3.35;100.00
47670;BME280;33408;52.062;11.722;2023-04-26T00:39:06;101140.75;;;3.27;100.00
47670;BME280;33408;52.062;11.722;2023-04-26T00:41:35;101145.91;;;3.29;100.00
47670;BME280;33408;52.062;11.722;2023-04-26T00:44:01;101150.19;;;3.28;100.00
47670;BME280;33408;52.062;11.722;2023-04-26T00:46:28;101143.44;;;3.34;100.00
47670;BME280;33408;52.062;11.722;2023-04-26T00:48:55;101143.44;;;3.34;100.00
47670;BME280;33408;52.062;11.722;2023-04-26T00:51:22;101148.59;;;3.35;100.00
47670;BME280;33408;52.062;11.722;2023-04-26T00:53:49;101148.63;;;3.37;100.00
47670;BME280;33408;52.062;11.722;2023-04-26T00:56:16;101149.34;;;3.31;100.00
47670;BME280;33408;52.062;11.722;2023-04-26T00:58:44;101135.56;;;3.24;100.00
47670;BME280;33408;52.062;11.722;2023-04-26T01:01:11;101149.94;;;3.16;100.00
47670;BME280;33408;52.062;11.722;2023-04-26T01:03:37;101147.47;;;3.21;100.00
47670;BME280;33408;52.062;11.722;2023-04-26T01:06:04;101158.47;;;3.17;100.00
47670;BME280;33408;52.062;11.722;2023-04-26T01:08:31;101155.22;;;3.24;100.00
47670;BME280;33408;52.062;11.722;2023-04-26T01:10:58;101158.44;;;3.15;100.00
47670;BME280;33408;52.062;11.722;2023-04-26T01:13:25;101156.63;;;3.08;100.00
47670;BME280;33408;52.062;11.722;2023-04-26T01:15:53;101150.69;;;3.10;100.00
47670;BME280;33408;52.062;11.722;2023-04-26T01:18:21;101159.16;;;3.06;100.00
47670;BME280;33408;52.062;11.722;2023-04-26T01:20:48;101154.03;;;3.06;100.00
47670;BME280;33408;52.062;11.722;2023-04-26T01:23:18;101154.25;;;3.19;100.00
47670;BME280;33408;52.062;11.722;2023-04-26T01:25:45;101160.88;;;3.07;100.00
47670;BME280;33408;52.062;11.722;2023-04-26T01:28:11;101153.97;;;3.03;100.00
47670;BME280;33408;52.062;11.722;2023-04-26T01:30:38;101158.47;;;3.17;100.00
47670;BME280;33408;52.062;11.722;2023-04-26T01:33:04;101163.72;;;3.23;100.00
47670;BME280;33408;52.062;11.722;2023-04-26T01:35:31;101161.09;;;3.20;100.00
47670;BME280;33408;52.062;11.722;2023-04-26T01:37:58;101153.56;;;3.27;100.00
47670;BME280;33408;52.062;11.722;2023-04-26T01:40:26;101155.25;;;3.25;100.00
47670;BME280;33408;52.062;11.722;2023-04-26T01:42:52;101161.94;;;3.17;100.00
47670;BME280;33408;52.062;11.722;2023-04-26T01:45:19;101154.34;;;3.25;100.00
47670;BME280;33408;52.062;11.722;2023-04-26T01:47:45;101161.94;;;3.17;100.00
47670;BME280;33408;52.062;11.722;2023-04-26T01:50:12;101157.63;;;3.16;100.00
47670;BME280;33408;52.062;11.722;2023-04-26T01:52:39;101170.56;;;3.22;100.00
47670;BME280;33408;52.062;11.722;2023-04-26T01:55:06;101171.25;;;3.15;100.00
47670;BME280;33408;52.062;11.722;2023-04-26T01:57:34;101166.97;;;3.13;100.00
47670;BME280;33408;52.062;11.722;2023-04-26T02:00:01;101175.47;;;3.12;100.00
47670;BME280;33408;52.062;11.722;2023-04-26T02:02:29;101167.78;;;3.12;100.00
47670;BME280;33408;52.062;11.722;2023-04-26T02:04:55;101179.72;;;3.09;100.00
47670;BME280;33408;52.062;11.722;2023-04-26T02:07:22;101177.75;;;2.98;100.00
47670;BME280;33408;52.062;11.722;2023-04-26T02:09:49;101174.16;;;2.88;100.00
47670;BME280;33408;52.062;11.722;2023-04-26T02:12:15;101182.72;;;2.88;100.00
47670;BME280;33408;52.062;11.722;2023-04-26T02:14:43;101176.56;;;2.80;100.00
47670;BME280;33408;52.062;11.722;2023-04-26T02:17:10;101183.09;;;2.66;100.00
47670;BME280;33408;52.062;11.722;2023-04-26T02:19:36;101185.00;;;2.76;100.00
47670;BME280;33408;52.062;11.722;2023-04-26T02:22:04;101186.69;;;2.74;100.00
47670;BME280;33408;52.062;11.722;2023-04-26T02:24:30;101177.91;;;2.63;100.00
47670;BME280;33408;52.062;11.722;2023-04-26T02:26:57;101185.53;;;2.60;100.00
47670;BME280;33408;52.062;11.722;2023-04-26T02:29:27;101183.78;;;2.59;100.00
47670;BME280;33408;52.062;11.722;2023-04-26T02:31:56;101177.72;;;2.53;100.00
47670;BME280;33408;52.062;11.722;2023-04-26T02:34:22;101183.75;;;2.57;100.00
47670;BME280;33408;52.062;11.722;2023-04-26T02:36:49;101188.75;;;2.52;100.00
47670;BME280;33408;52.062;11.722;2023-04-26T02:39:16;101179.41;;;2.53;100.00
47670;BME280;33408;52.062;11.722;2023-04-26T02:41:43;101182.81;;;2.53;100.00
47670;BME280;33408;52.062;11.722;2023-04-26T02:44:10;101183.69;;;2.54;100.00
47670;BME280;33408;52.062;11.722;2023-04-26T02:46:36;101186.06;;;2.46;100.00
47670;BME280;33408;52.062;11.722;2023-04-26T02:49:04;101181.72;;;2.42;100.00
47670;BME280;33408;52.062;11.722;2023-04-26T02:51:31;101189.38;;;2.41;100.00
47670;BME280;33408;52.062;11.722;2023-04-26T02:53:58;101185.72;;;2.29;100.00
47670;BME280;33408;52.062;11.722;2023-04-26T02:56:24;101178.06;;;2.31;100.00
47670;BME280;33408;52.062;11.722;2023-04-26T02:58:51;101185.97;;;2.40;100.00
47670;BME280;33408;52.062;11.722;2023-04-26T03:01:18;101183.06;;;2.26;100.00
47670;BME280;33408;52.062;11.722;2023-04-26T03:03:44;101184.63;;;2.19;100.00
47670;BME280;33408;52.062;11.722;2023-04-26T03:06:12;101181.81;;;2.09;100.00
47670;BME280;33408;52.062;11.722;2023-04-26T03:08:39;101179.88;;;1.98;100.00
47670;BME280;33408;52.062;11.722;2023-04-26T03:11:05;101179.25;;;2.09;100.00
47670;BME280;33408;52.062;11.722;2023-04-26T03:13:32;101184.88;;;1.94;100.00
47670;BME280;33408;52.062;11.722;2023-04-26T03:15:58;101174.72;;;1.97;100.00
47670;BME280;33408;52.062;11.722;2023-04-26T03:18:25;101185.66;;;1.91;100.00
47670;BME280;33408;52.062;11.722;2023-04-26T03:20:52;101182.13;;;1.86;100.00
47670;BME280;33408;52.062;11.722;2023-04-26T03:23:19;101184.03;;;1.93;100.00
47670;BME280;33408;52.062;11.722;2023-04-26T03:25:48;101191.06;;;2.04;100.00
47670;BME280;33408;52.062;11.722;2023-04-26T03:28:15;101192.31;;;1.85;100.00
47670;BME280;33408;52.062;11.722;2023-04-26T03:30:41;101185.59;;;1.88;100.00
47670;BME280;33408;52.062;11.722;2023-04-26T03:33:08;101187.03;;;1.78;100.00
47670;BME280;33408;52.062;11.722;2023-04-26T03:35:34;101186.31;;;1.82;100.00
47670;BME280;33408;52.062;11.722;2023-04-26T03:38:01;101187.84;;;1.76;100.00
47670;BME280;33408;52.062;11.722;2023-04-26T03:40:29;101190.34;;;1.73;100.00
47670;BME280;33408;52.062;11.722;2023-04-26T03:42:56;101190.34;;;1.73;100.00
47670;BME280;33408;52.062;11.722;2023-04-26T03:45:22;101188.28;;;1.59;100.00
47670;BME280;33408;52.062;11.722;2023-04-26T03:47:51;101187.28;;;1.54;100.00
47670;BME280;33408;52.062;11.722;2023-04-26T03:50:18;101183.25;;;1.62;100.00
47670;BME280;33408;52.062;11.722;2023-04-26T03:52:44;101188.94;;;1.52;100.00
47670;BME280;33408;52.062;11.722;2023-04-26T03:55:11;101180.44;;;1.52;100.00
47670;BME280;33408;52.062;11.722;2023-04-26T03:57:41;101186.81;;;1.68;100.00
47670;BME280;33408;52.062;11.722;2023-04-26T04:00:08;101185.63;;;1.55;100.00
47670;BME280;33408;52.062;11.722;2023-04-26T04:02:36;101190.88;;;1.61;100.00
47670;BME280;33408;52.062;11.722;2023-04-26T04:05:03;101190.94;;;1.64;100.00
47670;BME280;33408;52.062;11.722;2023-04-26T04:07:29;101194.56;;;1.72;100.00
47670;BME280;33408;52.062;11.722;2023-04-26T04:09:57;101197.31;;;1.80;100.00
47670;BME280;33408;52.062;11.722;2023-04-26T04:12:23;101202.00;;;5.46;100.00
47670;BME280;33408;52.062;11.722;2023-04-26T04:14:52;101204.09;;;5.89;100.00
47670;BME280;33408;52.062;11.722;2023-04-26T04:17:19;101202.78;;;5.40;100.00
47670;BME280;33408;52.062;11.722;2023-04-26T04:19:46;101195.06;;;3.55;100.00
47670;BME280;33408;52.062;11.722;2023-04-26T04:22:12;101192.53;;;3.09;100.00
47670;BME280;33408;52.062;11.722;2023-04-26T04:24:39;101190.63;;;3.01;100.00
47670;BME280;33408;52.062;11.722;2023-04-26T04:27:06;101187.81;;;3.33;100.00
47670;BME280;33408;52.062;11.722;2023-04-26T04:29:33;101188.31;;;3.60;100.00
47670;BME280;33408;52.062;11.722;2023-04-26T04:32:01;101194.53;;;3.26;100.00
47670;BME280;33408;52.062;11.722;2023-04-26T04:34:28;101188.63;;;3.28;100.00
47670;BME280;33408;52.062;11.722;2023-04-26T04:36:54;101195.13;;;3.13;100.00
47670;BME280;33408;52.062;11.722;2023-04-26T04:39:21;101198.19;;;3.89;100.00
47670;BME280;33408;52.062;11.722;2023-04-26T04:41:47;101193.19;;;3.95;100.00
47670;BME280;33408;52.062;11.722;2023-04-26T04:44:14;101192.28;;;4.50;100.00
47670;BME280;33408;52.062;11.722;2023-04-26T04:46:41;101199.66;;;4.92;100.00
47670;BME280;33408;52.062;11.722;2023-04-26T04:49:10;101187.75;;;4.96;100.00
47670;BME280;33408;52.062;11.722;2023-04-26T04:51:37;101198.28;;;4.52;100.00
47670;BME280;33408;52.062;11.722;2023-04-26T04:54:13;101207.50;;;5.02;100.00
47670;BME280;33408;52.062;11.722;2023-04-26T04:56:40;101198.59;;;5.50;100.00
47670;BME280;33408;52.062;11.722;2023-04-26T04:59:07;101199.31;;;5.35;100.00
47670;BME280;33408;52.062;11.722;2023-04-26T05:01:34;101200.31;;;5.50;100.00
47670;BME280;33408;52.062;11.722;2023-04-26T05:04:01;101192.59;;;5.50;100.00
47670;BME280;33408;52.062;11.722;2023-04-26T05:06:29;101199.59;;;5.63;100.00
47670;BME280;33408;52.062;11.722;2023-04-26T05:08:57;101205.78;;;5.85;100.00
47670;BME280;33408;52.062;11.722;2023-04-26T05:11:24;101197.25;;;5.92;100.00
47670;BME280;33408;52.062;11.722;2023-04-26T05:13:50;101206.84;;;6.04;100.00
47670;BME280;33408;52.062;11.722;2023-04-26T05:16:17;101207.94;;;6.40;100.00
47670;BME280;33408;52.062;11.722;2023-04-26T05:18:43;101215.69;;;6.43;100.00
47670;BME280;33408;52.062;11.722;2023-04-26T05:21:10;101208.81;;;6.45;100.00
47670;BME280;33408;52.062;11.722;2023-04-26T05:23:38;101214.06;;;6.56;100.00
47670;BME280;33408;52.062;11.722;2023-04-26T05:26:05;101213.06;;;6.35;100.00
47670;BME280;33408;52.062;11.722;2023-04-26T05:28:32;101201.28;;;6.81;100.00
47670;BME280;33408;52.062;11.722;2023-04-26T05:30:59;101212.63;;;7.18;100.00
47670;BME280;33408;52.062;11.722;2023-04-26T05:33:26;101217.75;;;7.10;100.00
47670;BME280;33408;52.062;11.722;2023-04-26T05:35:53;101216.88;;;7.04;100.00
47670;BME280;33408;52.062;11.722;2023-04-26T05:38:22;101221.22;;;7.17;100.00
47670;BME280;33408;52.062;11.722;2023-04-26T05:40:50;101226.50;;;7.63;100.00
47670;BME280;33408;52.062;11.722;2023-04-26T05:43:17;101225.59;;;7.43;100.00
47670;BME280;33408;52.062;11.722;2023-04-26T05:45:49;101228.22;;;7.86;100.00
47670;BME280;33408;52.062;11.722;2023-04-26T05:48:16;101229.00;;;7.39;100.00
47670;BME280;33408;52.062;11.722;2023-04-26T05:50:43;101233.25;;;7.24;100.00
47670;BME280;33408;52.062;11.722;2023-04-26T05:53:10;101235.91;;;7.43;100.00
47670;BME280;33408;52.062;11.722;2023-04-26T05:55:36;101231.69;;;8.00;100.00
47670;BME280;33408;52.062;11.722;2023-04-26T05:58:04;101233.41;;;8.11;100.00
47670;BME280;33408;52.062;11.722;2023-04-26T06:00:31;101236.84;;;8.00;100.00
47670;BME280;33408;52.062;11.722;2023-04-26T06:02:58;101233.34;;;7.52;100.00
47670;BME280;33408;52.062;11.722;2023-04-26T06:05:25;101234.25;;;8.13;100.00
47670;BME280;33408;52.062;11.722;2023-04-26T06:07:52;101236.72;;;7.39;100.00
47670;BME280;33408;52.062;11.722;2023-04-26T06:10:19;101246.25;;;7.67;100.00
47670;BME280;33408;52.062;11.722;2023-04-26T06:12:46;101241.09;;;7.55;100.00
47670;BME280;33408;52.062;11.722;2023-04-26T06:15:14;101251.25;;;7.10;100.00
47670;BME280;33408;52.062;11.722;2023-04-26T06:17:40;101231.53;;;7.23;100.00
47670;BME280;33408;52.062;11.722;2023-04-26T06:20:07;101247.94;;;7.39;100.00
47670;BME280;33408;52.062;11.722;2023-04-26T06:22:34;101241.16;;;8.11;100.00
47670;BME280;33408;52.062;11.722;2023-04-26T06:25:03;101231.63;;;7.59;100.00
47670;BME280;33408;52.062;11.722;2023-04-26T06:27:29;101233.38;;;7.80;100.00
47670;BME280;33408;52.062;11.722;2023-04-26T06:29:56;101230.81;;;7.86;100.00
47670;BME280;33408;52.062;11.722;2023-04-26T06:32:25;101234.25;;;7.91;100.00
47670;BME280;33408;52.062;11.722;2023-04-26T06:34:51;101231.69;;;7.97;100.00
47670;BME280;33408;52.062;11.722;2023-04-26T06:37:19;101234.28;;;8.02;100.00
47670;BME280;33408;52.062;11.722;2023-04-26T06:39:45;101236.75;;;7.45;100.00
47670;BME280;33408;52.062;11.722;2023-04-26T06:42:12;101240.13;;;7.19;100.00
47670;BME280;33408;52.062;11.722;2023-04-26T06:44:38;101239.09;;;6.82;100.00
47670;BME280;33408;52.062;11.722;2023-04-26T06:47:05;101243.56;;;7.24;100.00
47670;BME280;33408;52.062;11.722;2023-04-26T06:49:35;101247.78;;;7.01;100.00
47670;BME280;33408;52.062;11.722;2023-04-26T06:52:02;101254.66;;;7.03;100.00
47670;BME280;33408;52.062;11.722;2023-04-26T06:54:29;101250.31;;;6.93;100.00
47670;BME280;33408;52.062;11.722;2023-04-26T06:56:55;101250.31;;;6.91;100.00
47670;BME280;33408;52.062;11.722;2023-04-26T06:59:22;101258.88;;;6.90;100.00
47670;BME280;33408;52.062;11.722;2023-04-26T07:01:50;101250.22;;;6.78;100.00
47670;BME280;33408;52.062;11.722;2023-04-26T07:04:16;101256.31;;;6.92;100.00
47670;BME280;33408;52.062;11.722;2023-04-26T07:06:46;101255.50;;;6.99;100.00
47670;BME280;33408;52.062;11.722;2023-04-26T07:09:12;101259.03;;;7.17;100.00
47670;BME280;33408;52.062;11.722;2023-04-26T07:11:39;101259.75;;;6.89;100.00
47670;BME280;33408;52.062;11.722;2023-04-26T07:14:05;101254.84;;;7.59;100.00
47670;BME280;33408;52.062;11.722;2023-04-26T07:16:32;101250.59;;;7.81;100.00
47670;BME280;33408;52.062;11.722;2023-04-26T07:18:59;101255.75;;;7.72;100.00
47670;BME280;33408;52.062;11.722;2023-04-26T07:21:25;101245.41;;;7.64;100.00
47670;BME280;33408;52.062;11.722;2023-04-26T07:23:54;101259.03;;;7.26;100.00
47670;BME280;33408;52.062;11.722;2023-04-26T07:26:21;101249.47;;;6.91;100.00
47670;BME280;33408;52.062;11.722;2023-04-26T07:28:47;101258.19;;;7.24;100.00
47670;BME280;33408;52.062;11.722;2023-04-26T07:31:14;101255.69;;;7.55;100.00
47670;BME280;33408;52.062;11.722;2023-04-26T07:33:40;101261.72;;;7.60;100.00
47670;BME280;33408;52.062;11.722;2023-04-26T07:36:08;101256.44;;;7.24;100.00
47670;BME280;33408;52.062;11.722;2023-04-26T07:38:34;101262.56;;;7.46;100.00
47670;BME280;33408;52.062;11.722;2023-04-26T07:41:03;101262.56;;;7.48;100.00
47670;BME280;33408;52.062;11.722;2023-04-26T07:43:30;101261.75;;;7.74;100.00
47670;BME280;33408;52.062;11.722;2023-04-26T07:45:58;101265.97;;;7.32;100.00
47670;BME280;33408;52.062;11.722;2023-04-26T07:48:25;101272.09;;;7.78;100.00
47670;BME280;33408;52.062;11.722;2023-04-26T07:50:52;101256.63;;;8.11;100.00
47670;BME280;33408;52.062;11.722;2023-04-26T07:53:19;101260.09;;;8.05;100.00
47670;BME280;33408;52.062;11.722;2023-04-26T07:55:46;101260.03;;;7.68;100.00
47670;BME280;33408;52.062;11.722;2023-04-26T07:58:14;101262.66;;;8.02;100.00
47670;BME280;33408;52.062;11.722;2023-04-26T08:00:43;101266.09;;;7.81;100.00
47670;BME280;33408;52.062;11.722;2023-04-26T08:03:10;101282.44;;;7.80;100.00
47670;BME280;33408;52.062;11.722;2023-04-26T08:05:37;101267.78;;;7.63;100.00
47670;BME280;33408;52.062;11.722;2023-04-26T08:08:04;101265.25;;;8.24;100.00
47670;BME280;33408;52.062;11.722;2023-04-26T08:10:30;101265.25;;;8.36;100.00
47670;BME280;33408;52.062;11.722;2023-04-26T08:12:57;101278.16;;;8.28;97.26
47670;BME280;33408;52.062;11.722;2023-04-26T08:15:28;101265.25;;;8.27;96.00
47670;BME280;33408;52.062;11.722;2023-04-26T08:17:56;101261.75;;;8.71;94.02
47670;BME280;33408;52.062;11.722;2023-04-26T08:20:23;101270.34;;;8.88;92.91
47670;BME280;33408;52.062;11.722;2023-04-26T08:22:54;101263.38;;;9.13;94.17
47670;BME280;33408;52.062;11.722;2023-04-26T08:25:21;101258.31;;;8.80;96.31
47670;BME280;33408;52.062;11.722;2023-04-26T08:27:47;101255.75;;;8.43;99.51
47670;BME280;33408;52.062;11.722;2023-04-26T08:30:14;101272.13;;;8.17;98.58
47670;BME280;33408;52.062;11.722;2023-04-26T08:32:42;101263.53;;;8.04;100.00
47670;BME280;33408;52.062;11.722;2023-04-26T08:35:09;101270.41;;;8.10;99.94
47670;BME280;33408;52.062;11.722;2023-04-26T08:37:36;101261.78;;;8.03;98.87
47670;BME280;33408;52.062;11.722;2023-04-26T08:40:04;101270.41;;;8.59;98.08
47670;BME280;33408;52.062;11.722;2023-04-26T08:42:33;101269.41;;;9.12;93.57
47670;BME280;33408;52.062;11.722;2023-04-26T08:45:05;101254.50;;;9.62;86.88
47670;BME280;33408;52.062;11.722;2023-04-26T08:47:39;101258.22;;;9.07;90.41
47670;BME280;33408;52.062;11.722;2023-04-26T08:50:09;101265.22;;;8.79;86.07
47670;BME280;33408;52.062;11.722;2023-04-26T08:52:39;101260.00;;;8.87;88.81
47670;BME280;33408;52.062;11.722;2023-04-26T08:55:08;101264.41;;;8.23;90.48
47670;BME280;33408;52.062;11.722;2023-04-26T08:57:35;101255.66;;;9.01;94.34
47670;BME280;33408;52.062;11.722;2023-04-26T09:00:03;101271.13;;;9.10;90.59
47670;BME280;33408;52.062;11.722;2023-04-26T09:02:31;101255.59;;;9.21;89.38
47670;BME280;33408;52.062;11.722;2023-04-26T09:04:58;101262.50;;;9.18;85.34
47670;BME280;33408;52.062;11.722;2023-04-26T09:07:30;101252.16;;;9.16;86.00
47670;BME280;33408;52.062;11.722;2023-04-26T09:09:58;101254.88;;;8.81;88.06
47670;BME280;33408;52.062;11.722;2023-04-26T09:12:26;101263.47;;;8.86;88.24
47670;BME280;33408;52.062;11.722;2023-04-26T09:14:52;101268.63;;;8.92;89.80
47670;BME280;33408;52.062;11.722;2023-04-26T09:17:24;101265.13;;;9.04;90.62
47670;BME280;33408;52.062;11.722;2023-04-26T09:19:51;101276.41;;;8.76;88.90
47670;BME280;33408;52.062;11.722;2023-04-26T09:22:28;101264.38;;;8.60;90.21
47670;BME280;33408;52.062;11.722;2023-04-26T09:24:55;101268.66;;;8.80;90.11
47670;BME280;33408;52.062;11.722;2023-04-26T09:27:31;101274.66;;;8.91;87.64
47670;BME280;33408;52.062;11.722;2023-04-26T09:29:58;101274.66;;;8.86;89.69
47670;BME280;33408;52.062;11.722;2023-04-26T09:32:25;101278.91;;;9.00;89.13
47670;BME280;33408;52.062;11.722;2023-04-26T09:34:53;101279.00;;;8.80;87.50
47670;BME280;33408;52.062;11.722;2023-04-26T09:37:20;101273.00;;;8.59;86.00
47670;BME280;33408;52.062;11.722;2023-04-26T09:39:47;101266.09;;;8.64;86.41
47670;BME280;33408;52.062;11.722;2023-04-26T09:42:16;101280.69;;;8.91;85.67
47670;BME280;33408;52.062;11.722;2023-04-26T09:44:43;101268.44;;;9.34;87.16
47670;BME280;33408;52.062;11.722;2023-04-26T09:47:11;101271.91;;;9.34;86.20
47670;BME280;33408;52.062;11.722;2023-04-26T09:49:45;101276.19;;;9.40;84.45
47670;BME280;33408;52.062;11.722;2023-04-26T09:52:13;101261.06;;;10.13;82.43
47670;BME280;33408;52.062;11.722;2023-04-26T09:54:42;101255.25;;;9.78;81.52
47670;BME280;33408;52.062;11.722;2023-04-26T09:57:11;101258.75;;;9.74;82.68
47670;BME280;33408;52.062;11.722;2023-04-26T09:59:39;101256.75;;;10.10;77.89
47670;BME280;33408;52.062;11.722;2023-04-26T10:02:11;101263.91;;;10.80;79.13
47670;BME280;33408;52.062;11.722;2023-04-26T10:04:39;101255.16;;;9.94;73.91
47670;BME280;33408;52.062;11.722;2023-04-26T10:07:07;101254.41;;;9.75;73.89
47670;BME280;33408;52.062;11.722;2023-04-26T10:09:34;101256.25;;;9.59;73.94
47670;BME280;33408;52.062;11.722;2023-04-26T10:12:01;101255.94;;;10.05;74.37
47670;BME280;33408;52.062;11.722;2023-04-26T10:14:29;101259.22;;;10.27;73.27
47670;BME280;33408;52.062;11.722;2023-04-26T10:16:57;101263.53;;;10.23;70.53
47670;BME280;33408;52.062;11.722;2023-04-26T10:19:23;101259.41;;;10.02;70.79
47670;BME280;33408;52.062;11.722;2023-04-26T10:21:52;101263.19;;;9.52;69.22
47670;BME280;33408;52.062;11.722;2023-04-26T10:24:21;101270.28;;;9.15;72.93
47670;BME280;33408;52.062;11.722;2023-04-26T10:26:50;101278.13;;;8.81;79.92
47670;BME280;33408;52.062;11.722;2023-04-26T10:29:17;101288.50;;;8.25;84.14
47670;BME280;33408;52.062;11.722;2023-04-26T10:32:07;101292.78;;;8.09;87.80
47670;BME280;33408;52.062;11.722;2023-04-26T10:34:36;101287.59;;;8.01;89.91
47670;BME280;33408;52.062;11.722;2023-04-26T10:37:06;101286.75;;;8.26;91.90
47670;BME280;33408;52.062;11.722;2023-04-26T10:39:34;101283.34;;;8.50;90.64
47670;BME280;33408;52.062;11.722;2023-04-26T10:42:21;101282.47;;;8.65;89.22
47670;BME280;33408;52.062;11.722;2023-04-26T10:44:52;101285.00;;;8.88;87.63
47670;BME280;33408;52.062;11.722;2023-04-26T10:47:26;101283.25;;;9.02;87.21
47670;BME280;33408;52.062;11.722;2023-04-26T10:50:01;101281.56;;;8.83;85.69
47670;BME280;33408;52.062;11.722;2023-04-26T10:52:29;101288.47;;;8.78;86.03
47670;BME280;33408;52.062;11.722;2023-04-26T10:54:56;101281.59;;;8.61;84.23
47670;BME280;33408;52.062;11.722;2023-04-26T10:57:50;101276.44;;;8.58;84.29
47670;BME280;33408;52.062;11.722;2023-04-26T11:00:27;101272.94;;;8.87;83.40
47670;BME280;33408;52.062;11.722;2023-04-26T11:03:02;101280.56;;;9.22;83.65
47670;BME280;33408;52.062;11.722;2023-04-26T11:05:36;101258.66;;;9.83;83.14
47670;BME280;33408;52.062;11.722;2023-04-26T11:08:06;101255.66;;;10.42;78.10
47670;BME280;33408;52.062;11.722;2023-04-26T11:10:36;101250.31;;;10.57;72.55
47670;BME280;33408;52.062;11.722;2023-04-26T11:13:03;101251.13;;;10.63;69.84
47670;BME280;33408;52.062;11.722;2023-04-26T11:15:30;101247.19;;;11.04;71.66
47670;BME280;33408;52.062;11.722;2023-04-26T11:17:58;101245.88;;;10.67;74.66
47670;BME280;33408;52.062;11.722;2023-04-26T11:20:28;101251.53;;;10.15;75.80
47670;BME280;33408;52.062;11.722;2023-04-26T11:22:55;101248.09;;;10.14;76.67
47670;BME280;33408;52.062;11.722;2023-04-26T11:25:24;101254.16;;;10.09;76.44
47670;BME280;33408;52.062;11.722;2023-04-26T11:27:50;101249.69;;;10.29;70.77
47670;BME280;33408;52.062;11.722;2023-04-26T11:30:17;101249.88;;;10.04;71.82
47670;BME280;33408;52.062;11.722;2023-04-26T11:32:45;101254.97;;;10.18;71.47
47670;BME280;33408;52.062;11.722;2023-04-26T11:35:13;101264.81;;;9.67;70.64
47670;BME280;33408;52.062;11.722;2023-04-26T11:37:40;101251.78;;;9.84;74.84
47670;BME280;33408;52.062;11.722;2023-04-26T11:40:09;101255.16;;;9.92;74.91
47670;BME280;33408;52.062;11.722;2023-04-26T11:42:36;101262.03;;;9.98;72.60
47670;BME280;33408;52.062;11.722;2023-04-26T11:45:03;101255.19;;;9.91;74.09
47670;BME280;33408;52.062;11.722;2023-04-26T11:47:32;101257.53;;;10.18;77.21
47670;BME280;33408;52.062;11.722;2023-04-26T11:50:00;101251.78;;;9.82;75.18
47670;BME280;33408;52.062;11.722;2023-04-26T11:52:29;101261.47;;;9.46;75.64
47670;BME280;33408;52.062;11.722;2023-04-26T11:55:03;101260.59;;;9.55;75.49
47670;BME280;33408;52.062;11.722;2023-04-26T11:57:30;101257.16;;;9.52;70.88
47670;BME280;33408;52.062;11.722;2023-04-26T12:00:09;101250.09;;;9.77;65.32
47670;BME280;33408;52.062;11.722;2023-04-26T12:02:43;101243.75;;;10.18;65.02
47670;BME280;33408;52.062;11.722;2023-04-26T12:05:12;101254.94;;;10.21;64.87
47670;BME280;33408;52.062;11.722;2023-04-26T12:07:50;101259.00;;;9.28;66.94
47670;BME280;33408;52.062;11.722;2023-04-26T12:10:18;101265.78;;;9.51;72.49
47670;BME280;33408;52.062;11.722;2023-04-26T12:12:48;101272.81;;;9.21;71.63
47670;BME280;33408;52.062;11.722;2023-04-26T12:15:16;101266.63;;;9.53;73.84
47670;BME280;33408;52.062;11.722;2023-04-26T12:17:55;101262.16;;;9.81;73.47
47670;BME280;33408;52.062;11.722;2023-04-26T12:20:27;101258.81;;;9.65;68.61
47670;BME280;33408;52.062;11.722;2023-04-26T12:23:13;101262.38;;;9.44;66.62
47670;BME280;33408;52.062;11.722;2023-04-26T12:25:49;101258.53;;;10.02;66.63
47670;BME280;33408;52.062;11.722;2023-04-26T12:28:16;101253.09;;;10.37;67.26
47670;BME280;33408;52.062;11.722;2023-04-26T12:30:43;101250.91;;;11.51;65.27
47670;BME280;33408;52.062;11.722;2023-04-26T12:33:10;101230.78;;;11.65;63.95
47670;BME280;33408;52.062;11.722;2023-04-26T12:35:36;101245.28;;;11.18;62.79
47670;BME280;33408;52.062;11.722;2023-04-26T12:38:03;101253.59;;;10.72;65.03
47670;BME280;33408;52.062;11.722;2023-04-26T12:40:31;101252.72;;;9.71;62.40
47670;BME280;33408;52.062;11.722;2023-04-26T12:42:58;101249.22;;;9.78;63.28
47670;BME280;33408;52.062;11.722;2023-04-26T12:45:25;101269.22;;;9.51;64.41
47670;BME280;33408;52.062;11.722;2023-04-26T12:47:52;101261.59;;;9.25;66.99